createdAt,value
2022-10-12T00:00:56.046Z,1.60
2022-10-12T00:03:44.553Z,1.40
2022-10-12T00:06:32.966Z,1.75
2022-10-12T00:09:21.368Z,1.90
2022-10-12T00:12:11.307Z,1.80
2022-10-12T00:14:59.722Z,1.70
2022-10-12T00:17:48.193Z,1.50
2022-10-12T00:20:36.871Z,1.58
2022-10-12T00:23:25.281Z,1.50
2022-10-12T00:26:15.229Z,0.98
2022-10-12T00:29:05.459Z,1.67
2022-10-12T00:31:53.918Z,1.48
2022-10-12T00:34:42.373Z,1.80
2022-10-12T00:37:30.919Z,1.83
2022-10-12T00:40:20.346Z,1.27
2022-10-12T00:43:27.423Z,1.52
2022-10-12T00:46:20.559Z,1.30
2022-10-12T00:49:11.964Z,1.08
2022-10-12T00:52:02.502Z,1.75
2022-10-12T00:54:52.465Z,1.50
2022-10-12T00:57:45.890Z,1.23
2022-10-12T01:00:36.412Z,1.67
2022-10-12T01:03:26.401Z,1.58
2022-10-12T01:06:15.193Z,1.48
2022-10-12T01:09:03.830Z,1.48
2022-10-12T01:11:52.243Z,1.63
2022-10-12T01:14:40.725Z,1.33
2022-10-12T01:17:36.965Z,1.25
2022-10-12T01:20:55.870Z,1.30
2022-10-12T01:24:08.150Z,1.75
2022-10-12T01:27:06.659Z,1.35
2022-10-12T01:30:21.903Z,1.42
2022-10-12T01:33:26.727Z,1.08
2022-10-12T01:36:19.204Z,1.20
2022-10-12T01:39:12.314Z,1.35
2022-10-12T01:42:02.702Z,1.52
2022-10-12T01:44:51.160Z,1.33
2022-10-12T01:47:41.960Z,1.33
2022-10-12T01:50:40.765Z,0.90
2022-10-12T01:53:33.093Z,0.75
2022-10-12T01:56:30.367Z,0.93
2022-10-12T01:59:21.723Z,1.15
2022-10-12T02:02:17.392Z,0.82
2022-10-12T02:05:12.113Z,0.93
2022-10-12T02:08:06.895Z,1.00
2022-10-12T02:10:57.555Z,1.30
2022-10-12T02:13:49.011Z,1.27
2022-10-12T02:16:40.949Z,0.95
2022-10-12T02:19:32.345Z,0.73
2022-10-12T02:22:22.299Z,1.38
2022-10-12T02:25:13.388Z,0.82
2022-10-12T02:28:05.480Z,1.00
2022-10-12T02:30:55.873Z,1.25
2022-10-12T02:33:48.256Z,0.80
2022-10-12T02:36:39.726Z,0.85
2022-10-12T02:39:32.711Z,0.90
2022-10-12T02:42:23.964Z,1.30
2022-10-12T02:45:13.372Z,1.23
2022-10-12T02:48:02.395Z,1.15
2022-10-12T02:50:51.815Z,1.35
2022-10-12T02:53:40.539Z,0.98
2022-10-12T02:56:30.405Z,1.02
2022-10-12T02:59:19.959Z,0.90
2022-10-12T03:02:08.929Z,0.90
2022-10-12T03:04:57.328Z,0.70
2022-10-12T03:07:45.749Z,0.85
2022-10-12T03:10:34.184Z,1.00
2022-10-12T03:13:23.948Z,0.88
2022-10-12T03:16:13.153Z,0.85
2022-10-12T03:19:01.537Z,1.05
2022-10-12T03:21:49.916Z,1.30
2022-10-12T03:24:39.649Z,0.85
2022-10-12T03:27:28.043Z,0.88
2022-10-12T03:30:18.010Z,0.73
2022-10-12T03:33:06.501Z,0.80
2022-10-12T03:35:56.145Z,0.95
2022-10-12T03:38:44.584Z,1.00
2022-10-12T03:41:33.254Z,1.00
2022-10-12T03:44:21.735Z,0.75
2022-10-12T03:47:11.496Z,1.08
2022-10-12T03:49:59.958Z,0.93
2022-10-12T03:52:48.408Z,0.70
2022-10-12T03:55:37.002Z,0.82
2022-10-12T03:58:25.396Z,0.90
2022-10-12T04:01:13.903Z,1.15
2022-10-12T04:04:03.793Z,0.70
2022-10-12T04:06:52.201Z,0.80
2022-10-12T04:09:40.717Z,0.85
2022-10-12T04:12:29.452Z,1.08
2022-10-12T04:15:18.980Z,0.88
2022-10-12T04:18:07.561Z,0.70
2022-10-12T04:20:57.437Z,0.70
2022-10-12T04:23:45.888Z,1.10
2022-10-12T04:26:34.402Z,1.20
2022-10-12T04:29:23.110Z,2.13
2022-10-12T04:32:12.628Z,2.13
2022-10-12T04:35:01.367Z,2.70
2022-10-12T04:37:51.370Z,2.08
2022-10-12T04:40:39.726Z,2.22
2022-10-12T04:43:28.248Z,2.33
2022-10-12T04:46:16.711Z,1.70
2022-10-12T04:49:05.133Z,1.73
2022-10-12T04:51:54.600Z,2.08
2022-10-12T04:54:44.379Z,2.15
2022-10-12T04:57:32.775Z,2.00
2022-10-12T05:00:21.409Z,1.80
2022-10-12T05:03:10.111Z,1.60
2022-10-12T05:05:58.550Z,2.00
2022-10-12T05:08:47.082Z,1.27
2022-10-12T05:11:36.835Z,1.58
2022-10-12T05:14:25.267Z,1.65
2022-10-12T05:17:13.761Z,2.00
2022-10-12T05:20:02.199Z,1.40
2022-10-12T05:22:50.709Z,1.55
2022-10-12T05:25:39.384Z,1.40
2022-10-12T05:28:29.343Z,1.80
2022-10-12T05:31:17.859Z,1.85
2022-10-12T05:34:06.623Z,1.73
2022-10-12T05:36:55.311Z,1.83
2022-10-12T05:39:43.800Z,1.90
2022-10-12T05:42:32.228Z,2.58
2022-10-12T05:45:22.044Z,2.17
2022-10-12T05:48:10.523Z,1.83
2022-10-12T05:50:58.969Z,2.28
2022-10-12T05:53:47.540Z,2.28
2022-10-12T05:56:35.964Z,2.42
2022-10-12T05:59:24.485Z,1.73
2022-10-12T06:02:16.654Z,1.98
2022-10-12T06:05:05.705Z,2.30
2022-10-12T06:07:54.344Z,1.40
2022-10-12T06:10:46.482Z,2.20
2022-10-12T06:13:35.249Z,1.70
2022-10-12T06:16:24.060Z,1.85
2022-10-12T06:19:14.002Z,2.03
2022-10-12T06:22:02.508Z,2.42
2022-10-12T06:24:51.201Z,2.00
2022-10-12T06:27:39.993Z,2.28
2022-10-12T06:30:28.539Z,1.63
2022-10-12T06:33:17.006Z,1.50
2022-10-12T06:36:07.293Z,1.58
2022-10-12T06:38:56.091Z,1.95
2022-10-12T06:41:44.543Z,1.88
2022-10-12T06:44:33.085Z,2.42
2022-10-12T06:47:21.664Z,1.80
2022-10-12T06:50:11.021Z,2.33
2022-10-12T06:53:00.839Z,2.10
2022-10-12T06:55:49.455Z,2.05
2022-10-12T06:58:38.065Z,2.13
2022-10-12T07:01:26.694Z,1.77
2022-10-12T07:04:15.142Z,1.95
2022-10-12T07:07:03.714Z,1.88
2022-10-12T07:09:54.319Z,2.00
2022-10-12T07:12:42.851Z,1.80
2022-10-12T07:15:31.349Z,1.67
2022-10-12T07:18:19.813Z,1.58
2022-10-12T07:21:08.474Z,1.70
2022-10-12T07:23:56.963Z,1.60
2022-10-12T07:26:49.291Z,1.40
2022-10-12T07:29:39.489Z,1.70
2022-10-12T07:32:27.999Z,1.98
2022-10-12T07:35:16.600Z,1.65
2022-10-12T07:38:05.275Z,1.85
2022-10-12T07:40:54.350Z,1.52
2022-10-12T07:43:44.700Z,1.85
2022-10-12T07:46:33.195Z,2.25
2022-10-12T07:49:22.921Z,1.65
2022-10-12T07:52:11.779Z,1.92
2022-10-12T07:55:00.303Z,1.70
2022-10-12T07:57:48.733Z,1.55
2022-10-12T08:00:38.570Z,1.63
2022-10-12T08:03:27.002Z,1.65
2022-10-12T08:06:19.807Z,1.58
2022-10-12T08:09:08.298Z,1.58
2022-10-12T08:11:57.144Z,1.80
2022-10-12T08:14:45.688Z,1.50
2022-10-12T08:17:35.549Z,1.90
2022-10-12T08:20:23.997Z,1.90
2022-10-12T08:23:12.727Z,1.67
2022-10-12T08:26:01.223Z,1.27
2022-10-12T08:28:49.798Z,1.55
2022-10-12T08:31:38.491Z,1.40
2022-10-12T08:34:28.914Z,1.77
2022-10-12T08:37:17.348Z,1.77
2022-10-12T08:40:06.776Z,1.60
2022-10-12T08:42:58.592Z,1.42
2022-10-12T08:45:49.519Z,1.30
2022-10-12T08:48:46.891Z,1.67
2022-10-12T08:51:46.002Z,1.30
2022-10-12T08:54:39.249Z,1.10
2022-10-12T08:57:27.840Z,1.25
2022-10-12T09:00:18.006Z,1.60
2022-10-12T09:03:15.367Z,1.65
2022-10-12T09:06:11.383Z,2.13
2022-10-12T09:09:08.129Z,2.00
2022-10-12T09:12:09.290Z,1.38
2022-10-12T09:15:08.109Z,1.02
2022-10-12T09:17:57.697Z,1.42
2022-10-12T09:20:49.070Z,1.63
2022-10-12T09:23:40.639Z,1.40
2022-10-12T09:26:35.917Z,1.20
2022-10-12T09:29:26.959Z,1.80
2022-10-12T09:32:38.204Z,1.42
2022-10-12T09:35:26.704Z,1.70
2022-10-12T09:38:15.367Z,1.50
2022-10-12T09:41:03.764Z,1.20
2022-10-12T09:43:55.719Z,1.23
2022-10-12T09:46:47.266Z,1.33
2022-10-12T09:49:43.494Z,1.40
2022-10-12T09:52:33.875Z,1.20
2022-10-12T09:58:21.573Z,1.27
2022-10-12T10:01:19.119Z,1.38
2022-10-12T10:04:10.977Z,1.60
2022-10-12T10:07:15.939Z,1.40
2022-10-12T10:10:16.609Z,1.30
2022-10-12T10:13:06.452Z,1.50
2022-10-12T10:16:05.156Z,0.88
2022-10-12T10:18:58.995Z,0.85
2022-10-12T10:21:47.575Z,1.23
2022-10-12T10:24:37.756Z,1.63
2022-10-12T10:27:43.721Z,1.13
2022-10-12T10:30:38.077Z,1.45
2022-10-12T10:33:29.213Z,1.05
2022-10-12T10:36:24.602Z,1.30
2022-10-12T10:39:19.306Z,1.13
2022-10-12T10:42:11.315Z,1.33
2022-10-12T10:45:01.699Z,0.93
2022-10-12T10:47:50.456Z,1.30
2022-10-12T10:50:40.873Z,1.13
2022-10-12T10:53:33.032Z,1.58
2022-10-12T10:56:25.124Z,1.85
2022-10-12T10:59:18.374Z,0.98
2022-10-12T11:02:17.047Z,1.75
2022-10-12T11:05:09.475Z,1.70
2022-10-12T11:07:59.417Z,1.48
2022-10-12T11:10:52.976Z,1.02
2022-10-12T11:13:44.655Z,1.40
2022-10-12T11:16:37.508Z,0.98
2022-10-12T11:19:31.371Z,1.25
2022-10-12T11:22:23.229Z,1.58
2022-10-12T11:25:19.915Z,1.42
2022-10-12T11:28:10.083Z,1.10
2022-10-12T11:30:58.729Z,0.95
2022-10-12T11:33:48.266Z,1.65
2022-10-12T11:36:55.695Z,1.02
2022-10-12T11:39:51.712Z,1.30
2022-10-12T11:42:43.599Z,1.45
2022-10-12T11:45:39.922Z,0.80
2022-10-12T11:48:32.927Z,1.20
2022-10-12T11:51:21.346Z,1.00
2022-10-12T11:54:17.642Z,1.40
2022-10-12T11:57:09.842Z,2.10
2022-10-12T12:00:00.739Z,1.25
2022-10-12T12:02:54.097Z,1.60
2022-10-12T12:05:42.684Z,1.70
2022-10-12T12:08:59.544Z,2.38
2022-10-12T12:11:47.968Z,2.72
2022-10-12T12:14:48.206Z,2.40
2022-10-12T12:17:38.094Z,1.92
2022-10-12T12:21:03.187Z,2.00
2022-10-12T12:23:54.378Z,1.80
2022-10-12T12:26:48.522Z,1.90
2022-10-12T12:29:37.057Z,1.48
2022-10-12T12:32:26.912Z,1.40
2022-10-12T12:35:31.998Z,1.20
2022-10-12T12:38:30.553Z,1.50
2022-10-12T12:41:20.111Z,1.80
2022-10-12T12:44:38.226Z,1.35
2022-10-12T12:47:46.814Z,1.10
2022-10-12T12:50:37.305Z,1.35
2022-10-12T12:53:27.245Z,1.50
2022-10-12T12:56:20.819Z,1.55
2022-10-12T12:59:30.206Z,1.35
2022-10-12T13:02:39.843Z,1.40
2022-10-12T13:06:01.773Z,1.33
2022-10-12T13:09:17.480Z,1.73
2022-10-12T13:12:21.089Z,1.50
2022-10-12T13:15:31.139Z,1.50
2022-10-12T13:18:49.410Z,2.13
2022-10-12T13:21:40.765Z,1.45
2022-10-12T13:24:34.740Z,1.20
2022-10-12T13:27:26.100Z,1.13
2022-10-12T13:30:24.565Z,1.30
2022-10-12T13:33:17.428Z,0.85
2022-10-12T13:36:08.875Z,1.40
2022-10-12T13:38:58.626Z,1.92
2022-10-12T13:41:50.128Z,1.63
2022-10-12T13:44:40.269Z,1.70
2022-10-12T13:47:30.303Z,1.48
2022-10-12T13:50:22.918Z,1.40
2022-10-12T13:53:16.615Z,1.35
2022-10-12T13:56:09.075Z,1.60
2022-10-12T13:59:04.242Z,1.60
2022-10-12T14:01:58.006Z,1.58
2022-10-12T14:04:46.493Z,1.60
2022-10-12T14:07:37.109Z,1.55
2022-10-12T14:10:28.333Z,1.55
2022-10-12T14:13:21.875Z,1.30
2022-10-12T14:16:12.929Z,1.20
2022-10-12T14:19:21.539Z,1.63
2022-10-12T14:22:10.249Z,1.40
2022-10-12T14:25:11.494Z,1.25
2022-10-12T14:28:01.401Z,1.38
2022-10-12T14:30:53.183Z,1.38
2022-10-12T14:33:43.070Z,1.67
2022-10-12T14:36:31.986Z,1.35
2022-10-12T14:39:20.740Z,1.48
2022-10-12T14:42:20.733Z,1.65
2022-10-12T14:45:24.655Z,1.58
2022-10-12T14:48:15.711Z,1.90
2022-10-12T14:51:05.793Z,1.65
2022-10-12T14:54:01.118Z,1.33
2022-10-12T14:56:49.554Z,1.50
2022-10-12T14:59:38.058Z,1.52
2022-10-12T15:02:27.876Z,1.58
2022-10-12T15:05:18.686Z,1.80
2022-10-12T15:08:09.292Z,1.65
2022-10-12T15:10:57.893Z,1.90
2022-10-12T15:13:46.514Z,1.92
2022-10-12T15:16:35.004Z,2.33
2022-10-12T15:19:23.446Z,2.20
2022-10-12T15:22:13.474Z,2.58
2022-10-12T15:25:03.226Z,2.53
2022-10-12T15:27:51.704Z,1.90
2022-10-12T15:31:04.252Z,1.95
2022-10-12T15:33:48.555Z,2.42
2022-10-12T15:36:37.101Z,2.33
2022-10-12T15:39:25.511Z,2.55
2022-10-12T15:42:15.290Z,2.08
2022-10-12T15:45:03.678Z,2.85
2022-10-12T15:47:53.341Z,3.13
2022-10-12T15:50:43.309Z,2.30
2022-10-12T15:53:31.824Z,3.42
2022-10-12T15:56:20.643Z,3.30
2022-10-12T15:59:10.440Z,7.60
2022-10-12T16:01:59.704Z,3.97
2022-10-12T16:04:48.142Z,3.70
2022-10-12T16:07:36.524Z,10.25
2022-10-12T16:10:26.895Z,4.50
2022-10-12T16:13:15.590Z,3.03
2022-10-12T16:16:05.466Z,3.30
2022-10-12T16:18:54.222Z,2.97
2022-10-12T16:21:43.983Z,2.85
2022-10-12T16:24:32.410Z,2.45
2022-10-12T16:27:21.234Z,2.35
2022-10-12T16:30:11.313Z,2.95
2022-10-12T16:33:01.107Z,2.60
2022-10-12T16:35:49.513Z,2.50
2022-10-12T16:38:37.953Z,2.53
2022-10-12T16:41:29.257Z,1.85
2022-10-12T16:44:20.596Z,2.75
2022-10-12T16:47:10.718Z,2.33
2022-10-12T16:50:00.451Z,2.60
2022-10-12T16:52:49.245Z,2.00
2022-10-12T16:55:39.840Z,2.20
2022-10-12T16:58:28.331Z,1.83
2022-10-12T17:01:16.745Z,2.03
2022-10-12T17:04:05.495Z,2.15
2022-10-12T17:06:55.282Z,1.85
2022-10-12T17:09:43.964Z,1.73
2022-10-12T17:12:32.443Z,2.35
2022-10-12T17:15:22.328Z,2.45
2022-10-12T17:18:11.025Z,1.90
2022-10-12T17:20:59.894Z,1.88
2022-10-12T17:23:50.047Z,2.30
2022-10-12T17:26:40.984Z,2.25
2022-10-12T17:29:37.629Z,2.45
2022-10-12T17:32:26.187Z,1.75
2022-10-12T17:35:14.559Z,1.83
2022-10-12T17:38:02.973Z,1.60
2022-10-12T17:40:52.717Z,1.40
2022-10-12T17:43:41.169Z,2.35
2022-10-12T17:46:29.721Z,1.65
2022-10-12T17:49:24.532Z,1.45
2022-10-12T17:52:13.880Z,1.58
2022-10-12T17:55:02.643Z,1.77
2022-10-12T17:57:52.736Z,1.80
2022-10-12T18:00:41.206Z,1.65
2022-10-12T18:03:29.870Z,1.58
2022-10-12T18:06:21.301Z,2.15
2022-10-12T18:09:11.766Z,2.15
2022-10-12T18:12:00.187Z,2.08
2022-10-12T18:14:50.145Z,1.70
2022-10-12T18:17:38.907Z,1.50
2022-10-12T18:20:27.524Z,1.60
2022-10-12T18:23:16.128Z,2.40
2022-10-12T18:26:05.334Z,1.73
2022-10-12T18:28:55.569Z,1.50
2022-10-12T18:31:45.347Z,1.90
2022-10-12T18:34:36.731Z,1.63
2022-10-12T18:37:25.455Z,1.77
2022-10-12T18:40:14.183Z,1.45
2022-10-12T18:43:02.702Z,1.55
2022-10-12T18:45:51.175Z,1.67
2022-10-12T18:48:41.503Z,1.73
2022-10-12T18:51:31.243Z,2.10
2022-10-12T18:54:20.277Z,1.55
2022-10-12T18:57:08.671Z,1.58
2022-10-12T18:59:57.222Z,1.55
2022-10-12T19:02:45.798Z,1.33
2022-10-12T19:05:35.584Z,1.90
2022-10-12T19:08:24.048Z,2.30
2022-10-12T19:11:13.797Z,1.67
2022-10-12T19:14:03.734Z,1.83
2022-10-12T19:16:52.561Z,1.92
2022-10-12T19:19:41.172Z,2.00
2022-10-12T19:22:30.987Z,1.65
2022-10-12T19:25:19.393Z,1.63
2022-10-12T19:28:07.836Z,2.13
2022-10-12T19:30:56.311Z,2.17
2022-10-12T19:33:47.882Z,2.75
2022-10-12T19:36:36.578Z,2.75
2022-10-12T19:39:26.613Z,2.25
2022-10-12T19:42:15.317Z,2.55
2022-10-12T19:45:03.838Z,2.60
2022-10-12T19:47:52.299Z,4.07
2022-10-12T19:50:41.520Z,2.72
2022-10-12T19:53:30.071Z,3.47
2022-10-12T19:56:20.888Z,3.30
2022-10-12T19:59:11.629Z,3.63
2022-10-12T20:01:59.997Z,3.47
2022-10-12T20:04:53.873Z,3.38
2022-10-12T20:07:42.375Z,3.35
2022-10-12T20:10:30.803Z,3.65
2022-10-12T20:13:20.867Z,3.95
2022-10-12T20:16:09.905Z,4.03
2022-10-12T20:18:58.299Z,3.72
2022-10-12T20:21:46.724Z,3.60
2022-10-12T20:24:35.113Z,3.67
2022-10-12T20:27:23.526Z,4.18
2022-10-12T20:30:14.130Z,4.10
2022-10-12T20:33:02.683Z,3.25
2022-10-12T20:35:51.473Z,3.67
2022-10-12T20:38:40.571Z,4.15
2022-10-12T20:41:32.598Z,3.78
2022-10-12T20:44:21.034Z,3.85
2022-10-12T20:47:11.189Z,3.75
2022-10-12T20:49:59.688Z,4.53
2022-10-12T20:52:48.914Z,4.60
2022-10-12T20:55:40.429Z,3.60
2022-10-12T20:58:28.915Z,3.50
2022-10-12T21:01:18.608Z,3.83
2022-10-12T21:04:10.135Z,4.13
2022-10-12T21:06:58.606Z,3.67
2022-10-12T21:09:50.346Z,4.40
2022-10-12T21:12:38.800Z,4.00
2022-10-12T21:15:27.343Z,4.20
2022-10-12T21:18:15.892Z,3.60
2022-10-12T21:21:11.578Z,3.53
2022-10-12T21:24:01.747Z,4.03
2022-10-12T21:26:53.236Z,3.80
2022-10-12T21:29:41.634Z,4.05
2022-10-12T21:32:31.717Z,3.80
2022-10-12T21:35:20.234Z,3.05
2022-10-12T21:38:10.274Z,3.30
2022-10-12T21:41:00.085Z,3.50
2022-10-12T21:43:49.373Z,3.78
2022-10-12T21:46:38.381Z,3.55
2022-10-12T21:49:26.789Z,3.60
2022-10-12T21:52:16.981Z,2.92
2022-10-12T21:55:07.275Z,3.13
2022-10-12T21:57:55.791Z,3.38
2022-10-12T22:00:44.380Z,3.38
2022-10-12T22:03:32.913Z,3.90
2022-10-12T22:06:22.247Z,3.20
2022-10-12T22:09:16.272Z,3.40
2022-10-12T22:12:06.774Z,3.22
2022-10-12T22:14:55.249Z,2.75
2022-10-12T22:17:43.609Z,3.78
2022-10-12T22:20:32.262Z,2.95
2022-10-12T22:23:20.652Z,2.90
2022-10-12T22:26:11.862Z,2.60
2022-10-12T22:29:03.072Z,2.55
2022-10-12T22:31:51.515Z,2.53
2022-10-12T22:34:39.959Z,2.60
2022-10-12T22:37:28.822Z,2.67
2022-10-12T22:40:17.296Z,2.42
2022-10-12T22:43:06.087Z,2.28
2022-10-12T22:45:56.345Z,2.15
2022-10-12T22:48:44.999Z,2.40
2022-10-12T22:51:35.414Z,2.15
2022-10-12T22:54:23.970Z,2.25
2022-10-12T22:57:15.481Z,2.20
2022-10-12T23:00:04.897Z,2.70
2022-10-12T23:02:54.794Z,2.65
2022-10-12T23:05:49.475Z,2.05
2022-10-12T23:08:38.479Z,2.30
2022-10-12T23:11:28.824Z,2.30
2022-10-12T23:14:17.255Z,2.10
2022-10-12T23:17:05.771Z,1.85
2022-10-12T23:19:55.686Z,2.15
2022-10-12T23:22:44.214Z,2.17
2022-10-12T23:25:32.629Z,2.00
2022-10-12T23:28:21.160Z,1.80
2022-10-12T23:31:11.134Z,1.83
2022-10-12T23:34:01.246Z,1.90
2022-10-12T23:36:51.117Z,2.05
2022-10-12T23:39:39.535Z,2.30
2022-10-12T23:42:27.994Z,2.28
2022-10-12T23:45:16.709Z,1.83
2022-10-12T23:48:05.638Z,1.75
2022-10-12T23:50:54.150Z,1.65
2022-10-12T23:53:44.021Z,1.73
2022-10-12T23:56:32.591Z,2.05
2022-10-12T23:59:25.189Z,1.63
